Share

Allardt, TN

RAWS BISO-NP TN US (MBSFT1) Elev 1444 ft | 36.47 °N, 84.65 °W | Change Station

Current weather conditions updated 46 minutes ago

Clear
Clear
47 °F
Feels Like 47 °F
N
3
Wind Variable Wind from ENE
Gusts 5.0 mph
Sunrise 6:00 AM
Sunset 7:16 PM
Moon Waning Gibbous

Today is forecast to be Warmer than yesterday.

Pressure 30.15 in
Visibility 10.0 miles
Clouds Clear
Windchill 47 °F
Dew Point 41 °F
Humidity 78%
Rainfall 0.00 in
Snow Depth Not available.
UV 0 out of 16
Pollen 7.10 out of 12
Air Quality Not available.
Flu Activity Local Activity
METAR KCSV 191053Z AUTO 03004KT 10SM CLR 11/03 A3017 RMK AO2 SLP210 T01110028

More Conditions Fewer Conditions

Pressure 30.15 in
Visibility 10.0 miles
Clouds Clear
Windchill 47 °F
Dew Point 41 °F
Humidity 78%
Rainfall 0.00 in
Snow Depth Not available.
UV 0 out of 16
Pollen 7.10 out of 12
Air Quality Not available.
Flu Activity Local Activity
METAR KCSV 191053Z AUTO 03004KT 10SM CLR 11/03 A3017 RMK AO2 SLP210 T01110028

More Conditions Fewer Conditions

10-Day Weather Forecast

Almanac

Astronomy

Apr. 19, 2014 Rise Set
Actual Time 6:00 AM CDT 7:16 PM CDT
Civil Twilight 5:33 AM CDT 7:43 PM CDT
Nautical Twilight 5:01 AM CDT 8:15 PM CDT
Astronomical Twilight 4:28 AM CDT 8:49 PM CDT
Moon 11:53 PM CDT 9:22 AM CDT
Length of Visible Light 14h 09m
Length of Day
13h 16m
Tomorrow will be 2m 8s longer.
Waning Gibbous, 80% of the Moon is Illuminated
Today
Waning Gibbous
Apr 22
Last Quarter
Apr 29
New
May 6
First Quarter
May 14
Full

Today's Extremes

State Highs State Lows

Community

  • Bleeding Hearts
    Bleeding Hearts
  • Sunset Silhouettes
    Sunset Silhouettes
  • FL sunset Perico Isle
    FL sunset Perico Isle
  • Cloudy spring view
    Cloudy spring view
  • Old barn
    Old barn

WunderPhotos

Upload Photos

1,702,705 photos uploaded!

Nearby

Snow Depth

Station Depth Elevation
No new snow has been reported.

Coastal Water Temperatures

Place Temperature
No Stations Reporting

Earthquake Activity

City Distance Mag. Time & Date
Englewood, Tennessee 66 miles 2.8 9:34 PM CDT
2014-04-12
Minimum magnitude displayed is 2.5.

Nearby Weather Stations

Station Location Temp. Windchill Dew Point Humidity Wind Precip. Elev Updated Type
RAWS BISO-NP TN, Elgin, TN 47 °F 47 °F 41 °F 78% ENE  at  3 mph 0.00 in / hr 1444 ft 7:59 AM EDT MADIS
Byrdstown Water Plant, Byrdstown, TN 48.6 °F 49 °F 46 °F 89% NNW  at  0.0 mph 0.00 in / hr 774 ft 7:45 AM CDT Rapid Fire
Stonehenge #4, Fairfield Glade, TN 50.5 °F - 40 °F 67% North  at  0.0 mph 0.00 in / hr 1978 ft 7:35 AM CDT Normal

Show More Stations Show Fewer Stations

What do you think?

We're not finished. Please let us know what you like, what you don't like, and what you are still missing.